createdAt,value
2019-02-05T00:00:36.953Z,17.07
2019-02-05T00:03:10.182Z,16.50
2019-02-05T00:05:38.674Z,16.13
2019-02-05T00:08:07.154Z,15.93
2019-02-05T00:10:35.639Z,16.03
2019-02-05T00:13:04.293Z,16.23
2019-02-05T00:15:33.094Z,15.50
2019-02-05T00:18:01.476Z,15.67
2019-02-05T00:20:29.904Z,16.77
2019-02-05T00:22:58.327Z,16.10
2019-02-05T00:25:26.736Z,16.07
2019-02-05T00:27:55.161Z,16.07
2019-02-05T00:30:24.033Z,16.53
2019-02-05T00:32:52.524Z,15.03
2019-02-05T00:35:21.047Z,14.67
2019-02-05T00:37:49.527Z,15.67
2019-02-05T00:40:18.016Z,16.07
2019-02-05T00:42:46.431Z,14.70
2019-02-05T00:45:16.585Z,15.47
2019-02-05T00:47:45.008Z,15.00
2019-02-05T00:50:15.471Z,15.50
2019-02-05T00:52:43.948Z,14.53
2019-02-05T00:55:19.360Z,15.00
2019-02-05T00:57:47.903Z,15.80
2019-02-05T01:00:31.788Z,15.60
2019-02-05T01:03:00.332Z,15.40
2019-02-05T01:05:28.821Z,15.93
2019-02-05T01:07:57.364Z,15.77
2019-02-05T01:10:26.933Z,15.80
2019-02-05T01:12:55.909Z,16.30
2019-02-05T01:15:25.692Z,15.87
2019-02-05T01:17:54.452Z,16.10
2019-02-05T01:20:23.360Z,14.30
2019-02-05T01:22:51.943Z,15.73
2019-02-05T01:25:21.300Z,16.70
2019-02-05T01:27:50.158Z,16.60
2019-02-05T01:30:23.559Z,18.83
2019-02-05T01:32:52.218Z,16.87
2019-02-05T01:35:21.274Z,17.67
2019-02-05T01:37:49.744Z,16.73
2019-02-05T01:40:23.700Z,16.77
2019-02-05T01:42:52.252Z,17.17
2019-02-05T01:45:22.105Z,17.67
2019-02-05T01:47:50.683Z,16.93
2019-02-05T01:50:22.112Z,18.23
2019-02-05T01:52:50.525Z,17.03
2019-02-05T01:55:19.391Z,17.97
2019-02-05T01:57:47.871Z,17.87
2019-02-05T02:00:19.359Z,16.77
2019-02-05T02:02:47.837Z,16.33
2019-02-05T02:05:16.493Z,18.00
2019-02-05T02:07:44.968Z,17.33
2019-02-05T02:10:21.884Z,16.70
2019-02-05T02:12:50.495Z,17.70
2019-02-05T02:15:19.314Z,17.13
2019-02-05T02:17:47.789Z,16.87
2019-02-05T02:20:18.053Z,16.83
2019-02-05T02:22:46.794Z,16.73
2019-02-05T02:25:17.621Z,19.23
2019-02-05T02:27:46.477Z,17.73
2019-02-05T02:30:35.653Z,17.90
2019-02-05T02:33:04.548Z,18.80
2019-02-05T02:35:33.348Z,18.47
2019-02-05T02:38:01.825Z,18.57
2019-02-05T02:40:30.245Z,19.17
2019-02-05T02:42:58.657Z,18.63
2019-02-05T02:45:27.075Z,19.43
2019-02-05T02:47:55.490Z,18.50
2019-02-05T02:50:23.972Z,19.20
2019-02-05T02:52:52.732Z,17.03
2019-02-05T02:55:21.276Z,17.03
2019-02-05T02:57:49.770Z,17.57
2019-02-05T03:00:20.099Z,17.77
2019-02-05T03:02:49.055Z,18.23
2019-02-05T03:05:19.108Z,17.87
2019-02-05T03:07:48.035Z,18.03
2019-02-05T03:10:19.528Z,17.33
2019-02-05T03:12:48.031Z,17.57
2019-02-05T03:15:16.604Z,18.50
2019-02-05T03:17:45.020Z,18.10
2019-02-05T03:20:15.472Z,17.37
2019-02-05T03:22:45.344Z,17.70
2019-02-05T03:25:19.316Z,16.90
2019-02-05T03:27:47.887Z,18.67
2019-02-05T03:30:18.965Z,18.97
2019-02-05T03:32:47.525Z,18.43
2019-02-05T03:35:16.850Z,16.90
2019-02-05T03:37:45.671Z,16.40
2019-02-05T03:40:29.195Z,17.70
2019-02-05T03:42:57.756Z,18.97
2019-02-05T03:45:27.679Z,16.43
2019-02-05T03:47:59.225Z,16.90
2019-02-05T03:50:28.740Z,17.60
2019-02-05T03:53:17.874Z,16.33
2019-02-05T03:55:55.167Z,15.63
2019-02-05T03:58:32.732Z,16.47
2019-02-05T04:01:18.982Z,15.83
2019-02-05T04:03:59.664Z,15.57
2019-02-05T04:06:49.259Z,15.10
2019-02-05T04:09:44.540Z,15.73
2019-02-05T04:12:27.805Z,15.67
2019-02-05T04:15:05.102Z,16.50
2019-02-05T04:17:42.149Z,15.87
2019-02-05T04:20:33.088Z,15.93
2019-02-05T04:23:10.064Z,15.23
2019-02-05T04:26:13.219Z,14.97
2019-02-05T04:28:47.653Z,15.37
2019-02-05T04:31:27.641Z,16.57
2019-02-05T04:34:18.296Z,16.80
2019-02-05T04:37:16.664Z,16.47
2019-02-05T04:39:48.159Z,15.87
2019-02-05T04:42:37.433Z,14.83
2019-02-05T04:45:33.812Z,16.60
2019-02-05T04:48:05.284Z,16.40
2019-02-05T04:50:42.499Z,14.77
2019-02-05T04:53:22.560Z,14.93
2019-02-05T04:55:54.067Z,14.97
2019-02-05T04:58:46.438Z,15.93
2019-02-05T05:01:43.141Z,16.00
2019-02-05T05:04:14.628Z,15.93
2019-02-05T05:06:51.855Z,16.63
2019-02-05T05:09:43.636Z,15.67
2019-02-05T05:12:12.139Z,15.07
2019-02-05T05:14:42.966Z,14.80
2019-02-05T05:17:12.081Z,17.33
2019-02-05T05:19:40.805Z,16.73
2019-02-05T05:22:09.363Z,18.03
2019-02-05T05:24:38.222Z,18.27
2019-02-05T05:27:06.787Z,18.33
2019-02-05T05:29:35.208Z,18.17
2019-02-05T05:32:04.328Z,18.47
2019-02-05T05:34:32.754Z,18.33
2019-02-05T05:37:00.092Z,18.47
2019-02-05T05:39:28.518Z,17.93
2019-02-05T05:41:57.021Z,18.10
2019-02-05T05:44:25.429Z,18.40
2019-02-05T05:46:53.917Z,17.57
2019-02-05T05:49:22.776Z,17.80
2019-02-05T05:51:51.197Z,17.20
2019-02-05T05:54:19.696Z,18.27
2019-02-05T05:56:48.105Z,17.70
2019-02-05T05:59:16.594Z,17.27
2019-02-05T06:01:45.055Z,17.30
2019-02-05T06:04:14.640Z,17.37
2019-02-05T06:06:43.439Z,17.20
2019-02-05T06:09:11.849Z,17.87
2019-02-05T06:11:40.339Z,17.80
2019-02-05T06:14:08.783Z,17.47
2019-02-05T06:16:38.323Z,17.37
2019-02-05T06:19:06.740Z,19.17
2019-02-05T06:21:35.163Z,17.33
2019-02-05T06:24:04.179Z,17.47
2019-02-05T06:26:32.668Z,16.93
2019-02-05T06:29:01.076Z,16.13
2019-02-05T06:31:29.499Z,16.30
2019-02-05T06:33:57.903Z,16.63
2019-02-05T06:36:26.329Z,16.00
2019-02-05T06:38:54.724Z,15.57
2019-02-05T06:41:23.320Z,16.10
2019-02-05T06:43:51.737Z,17.17
2019-02-05T06:46:20.153Z,15.80
2019-02-05T06:48:48.574Z,16.33
2019-02-05T06:51:18.519Z,15.83
2019-02-05T06:53:46.944Z,15.80
2019-02-05T06:56:15.420Z,14.93
2019-02-05T06:58:46.456Z,15.70
2019-02-05T07:01:13.984Z,14.97
2019-02-05T07:03:43.502Z,17.07
2019-02-05T07:06:12.052Z,15.70
2019-02-05T07:08:42.456Z,15.67
2019-02-05T07:11:10.599Z,15.07
2019-02-05T07:13:39.368Z,15.50
2019-02-05T07:16:07.849Z,16.33
2019-02-05T07:18:36.500Z,16.33
2019-02-05T07:21:04.987Z,15.50
2019-02-05T07:23:33.399Z,16.23
2019-02-05T07:26:01.819Z,16.37
2019-02-05T07:28:30.233Z,16.33
2019-02-05T07:30:58.896Z,16.33
2019-02-05T07:33:27.360Z,15.90
2019-02-05T07:35:56.593Z,15.50
2019-02-05T07:38:25.084Z,15.17
2019-02-05T07:40:53.594Z,16.00
2019-02-05T07:43:22.075Z,15.80
2019-02-05T07:45:50.588Z,16.50
2019-02-05T07:48:19.001Z,15.43
2019-02-05T07:50:47.698Z,16.33
2019-02-05T07:53:19.264Z,13.13
2019-02-05T07:55:47.743Z,12.80
2019-02-05T07:58:16.159Z,13.30
2019-02-05T08:00:44.565Z,13.10
2019-02-05T08:03:13.059Z,15.60
2019-02-05T08:05:41.476Z,15.13
2019-02-05T08:08:10.343Z,17.33
2019-02-05T08:10:38.767Z,16.87
2019-02-05T08:13:07.522Z,18.03
2019-02-05T08:15:35.934Z,16.07
2019-02-05T08:18:05.435Z,17.47
2019-02-05T08:20:33.927Z,16.60
2019-02-05T08:23:02.350Z,16.17
2019-02-05T08:25:30.830Z,15.97
2019-02-05T08:27:59.663Z,16.73
2019-02-05T08:30:30.598Z,17.07
2019-02-05T08:32:59.181Z,16.27
2019-02-05T08:35:33.487Z,15.27
2019-02-05T08:38:01.975Z,15.40
2019-02-05T08:40:32.000Z,15.77
2019-02-05T08:43:00.499Z,16.27
2019-02-05T08:45:31.761Z,15.90
2019-02-05T08:48:00.368Z,15.37
2019-02-05T08:50:30.087Z,15.13
2019-02-05T08:53:04.297Z,15.97
2019-02-05T08:55:33.944Z,15.90
2019-02-05T08:58:11.299Z,16.13
2019-02-05T09:00:41.571Z,15.90
2019-02-05T09:03:11.493Z,15.10
2019-02-05T09:05:40.468Z,16.20
2019-02-05T09:08:09.084Z,16.03
2019-02-05T09:10:39.747Z,16.00
2019-02-05T09:13:08.232Z,16.97
2019-02-05T09:15:36.867Z,15.47
2019-02-05T09:18:05.941Z,16.57
2019-02-05T09:20:34.576Z,15.40
2019-02-05T09:23:03.100Z,16.00
2019-02-05T09:25:31.556Z,16.00
2019-02-05T09:28:01.783Z,15.67
2019-02-05T09:30:36.920Z,15.43
2019-02-05T09:33:11.322Z,16.33
2019-02-05T09:35:41.120Z,16.97
2019-02-05T09:38:09.663Z,18.13
2019-02-05T09:40:38.227Z,16.80
2019-02-05T09:43:06.704Z,16.43
2019-02-05T09:45:35.640Z,17.10
2019-02-05T09:48:04.431Z,16.30
2019-02-05T09:50:43.805Z,15.57
2019-02-05T09:53:03.048Z,15.73
2019-02-05T09:55:31.509Z,15.30
2019-02-05T09:58:00.020Z,15.80
2019-02-05T10:00:34.316Z,16.60
2019-02-05T10:03:02.796Z,17.27
2019-02-05T10:05:33.512Z,17.03
2019-02-05T10:08:02.070Z,16.50
2019-02-05T10:10:30.649Z,18.23
2019-02-05T10:13:00.099Z,18.10
2019-02-05T10:15:31.300Z,18.57
2019-02-05T10:18:00.155Z,18.23
2019-02-05T10:20:28.714Z,18.13
2019-02-05T10:22:59.064Z,17.83
2019-02-05T10:25:27.552Z,18.43
2019-02-05T10:27:55.964Z,18.03
2019-02-05T10:30:32.862Z,19.27
2019-02-05T10:33:02.526Z,17.63
2019-02-05T10:35:31.032Z,17.90
2019-02-05T10:37:59.779Z,18.93
2019-02-05T10:40:28.268Z,17.60
2019-02-05T10:42:57.089Z,19.03
2019-02-05T10:45:26.620Z,18.37
2019-02-05T10:47:55.271Z,19.17
2019-02-05T10:50:24.252Z,17.63
2019-02-05T10:52:52.954Z,17.50
2019-02-05T10:55:22.486Z,17.83
2019-02-05T10:57:53.020Z,18.53
2019-02-05T11:00:24.820Z,15.30
2019-02-05T11:02:53.535Z,17.03
2019-02-05T11:05:26.076Z,16.43
2019-02-05T11:07:54.551Z,17.73
2019-02-05T11:10:23.108Z,16.67
2019-02-05T11:12:51.599Z,14.50
2019-02-05T11:15:32.031Z,15.00
2019-02-05T11:18:01.688Z,15.67
2019-02-05T11:20:30.540Z,14.73
2019-02-05T11:22:59.768Z,13.93
2019-02-05T11:25:28.244Z,13.97
2019-02-05T11:27:56.668Z,13.70
2019-02-05T11:30:32.891Z,14.03
2019-02-05T11:33:01.531Z,14.97
2019-02-05T11:35:30.383Z,14.50
2019-02-05T11:37:59.111Z,14.87
2019-02-05T11:40:32.511Z,14.83
2019-02-05T11:43:01.086Z,13.97
2019-02-05T11:45:29.720Z,14.53
2019-02-05T11:48:00.436Z,14.57
2019-02-05T11:50:28.968Z,15.50
2019-02-05T11:52:57.449Z,14.13
2019-02-05T11:55:33.487Z,14.20
2019-02-05T11:58:02.052Z,14.33
2019-02-05T12:00:41.091Z,14.43
2019-02-05T12:03:10.354Z,14.87
2019-02-05T12:05:39.104Z,16.07
2019-02-05T12:08:07.753Z,13.83
2019-02-05T12:10:36.873Z,13.73
2019-02-05T12:13:05.511Z,14.90
2019-02-05T12:15:34.571Z,15.43
2019-02-05T12:18:03.051Z,15.63
2019-02-05T12:20:31.475Z,15.70
2019-02-05T12:23:00.324Z,16.10
2019-02-05T12:25:28.812Z,14.47
2019-02-05T12:27:57.327Z,14.47
2019-02-05T12:30:31.614Z,14.73
2019-02-05T12:33:01.775Z,13.70
2019-02-05T12:35:30.668Z,20.53
2019-02-05T12:37:59.216Z,24.30
2019-02-05T12:40:27.800Z,24.00
2019-02-05T12:42:56.483Z,24.17
2019-02-05T12:45:30.949Z,24.57
2019-02-05T12:47:59.364Z,27.23
2019-02-05T12:50:33.150Z,26.47
2019-02-05T12:53:02.192Z,26.90
2019-02-05T12:55:31.796Z,28.13
2019-02-05T12:58:00.455Z,28.37
2019-02-05T13:00:56.453Z,28.10
2019-02-05T13:03:15.635Z,27.90
2019-02-05T13:05:44.556Z,28.20
2019-02-05T13:08:13.111Z,29.57
2019-02-05T13:10:49.936Z,28.63
2019-02-05T13:13:18.988Z,29.70
2019-02-05T13:15:47.660Z,29.37
2019-02-05T13:18:16.155Z,30.30
2019-02-05T13:20:44.631Z,29.57
2019-02-05T13:23:13.184Z,30.10
2019-02-05T13:25:42.572Z,30.83
2019-02-05T13:28:12.228Z,30.60
2019-02-05T13:30:40.883Z,29.63
2019-02-05T13:33:10.807Z,30.30
2019-02-05T13:35:39.846Z,30.00
2019-02-05T13:38:08.400Z,30.37
2019-02-05T13:40:36.871Z,30.33
2019-02-05T13:43:05.835Z,29.97
2019-02-05T13:45:38.691Z,32.63
2019-02-05T13:48:07.591Z,30.57
2019-02-05T13:50:36.263Z,31.37
2019-02-05T13:53:05.723Z,32.93
2019-02-05T13:55:39.812Z,30.70
2019-02-05T13:58:08.760Z,30.60
2019-02-05T14:00:45.462Z,31.67
2019-02-05T14:03:13.960Z,32.63
2019-02-05T14:05:42.668Z,32.23
2019-02-05T14:08:11.153Z,31.73
2019-02-05T14:10:41.971Z,32.00
2019-02-05T14:13:10.381Z,31.70
2019-02-05T14:15:41.334Z,33.30
2019-02-05T14:18:10.476Z,32.07
2019-02-05T14:20:38.887Z,32.97
2019-02-05T14:23:07.442Z,33.10
2019-02-05T14:25:36.399Z,32.70
2019-02-05T14:28:05.087Z,32.17
2019-02-05T14:30:39.246Z,32.30
2019-02-05T14:33:07.728Z,34.87
2019-02-05T14:35:36.381Z,32.70
2019-02-05T14:38:06.224Z,32.53
2019-02-05T14:40:34.703Z,33.00
2019-02-05T14:43:03.192Z,34.23
2019-02-05T14:45:31.769Z,34.30
2019-02-05T14:48:00.537Z,33.20
2019-02-05T14:50:31.087Z,34.00
2019-02-05T14:52:59.749Z,35.30
2019-02-05T14:55:28.243Z,34.77
2019-02-05T14:57:56.903Z,34.03
2019-02-05T15:00:27.653Z,34.27
2019-02-05T15:02:56.523Z,33.27
2019-02-05T15:05:24.999Z,33.70
2019-02-05T15:07:53.491Z,36.57
2019-02-05T15:10:22.140Z,35.03
2019-02-05T15:12:50.561Z,35.60
2019-02-05T15:15:21.491Z,35.40
2019-02-05T15:17:50.356Z,36.53
2019-02-05T15:20:21.837Z,35.50
2019-02-05T15:22:51.284Z,35.77
2019-02-05T15:25:19.847Z,36.03
2019-02-05T15:27:48.322Z,35.07
2019-02-05T15:30:25.739Z,36.43
2019-02-05T15:33:01.843Z,36.17
2019-02-05T15:35:30.258Z,35.47
2019-02-05T15:37:58.676Z,34.63
2019-02-05T15:40:27.079Z,36.80
2019-02-05T15:42:55.499Z,36.33
2019-02-05T15:45:26.293Z,36.70
2019-02-05T15:47:55.963Z,38.03
2019-02-05T15:50:24.629Z,39.27
2019-02-05T15:52:53.040Z,38.00
2019-02-05T15:55:21.520Z,36.47
2019-02-05T15:57:50.064Z,36.83
2019-02-05T16:00:25.776Z,35.80
2019-02-05T16:02:54.193Z,37.10
2019-02-05T16:05:22.627Z,39.33
2019-02-05T16:07:51.038Z,37.43
2019-02-05T16:10:24.763Z,37.63
2019-02-05T16:12:53.180Z,37.03
2019-02-05T16:15:21.599Z,35.80
2019-02-05T16:17:50.079Z,37.27
2019-02-05T16:20:22.236Z,37.80
2019-02-05T16:22:51.087Z,38.53
2019-02-05T16:25:19.600Z,38.27
2019-02-05T16:27:50.080Z,39.00
2019-02-05T16:30:26.848Z,39.17
2019-02-05T16:32:55.258Z,39.87
2019-02-05T16:35:23.755Z,40.30
2019-02-05T16:37:53.299Z,39.57
2019-02-05T16:40:27.555Z,39.17
2019-02-05T16:42:56.415Z,40.87
2019-02-05T16:45:27.276Z,39.47
2019-02-05T16:47:55.698Z,39.73
2019-02-05T16:50:44.587Z,40.40
2019-02-05T16:53:15.815Z,39.83
2019-02-05T16:55:44.227Z,39.97
2019-02-05T16:58:12.667Z,41.50
2019-02-05T17:00:41.148Z,41.57
2019-02-05T17:03:09.570Z,42.40
2019-02-05T17:05:40.023Z,42.27
2019-02-05T17:08:08.857Z,41.97
2019-02-05T17:10:37.335Z,41.10
2019-02-05T17:13:05.813Z,40.50
2019-02-05T17:15:34.242Z,41.03
2019-02-05T17:18:03.052Z,46.97
2019-02-05T17:20:32.520Z,59.40
2019-02-05T17:23:01.166Z,40.40
2019-02-05T17:25:29.860Z,41.33
2019-02-05T17:28:00.108Z,39.33
2019-02-05T17:30:39.747Z,39.37
2019-02-05T17:33:08.311Z,38.10
2019-02-05T17:35:36.977Z,35.07
2019-02-05T17:38:07.456Z,37.00
2019-02-05T17:40:35.904Z,38.00
2019-02-05T17:43:04.852Z,37.50
2019-02-05T17:45:38.259Z,32.87
2019-02-05T17:48:12.223Z,34.37
2019-02-05T17:50:41.041Z,33.77
2019-02-05T17:53:09.525Z,35.27
2019-02-05T17:55:38.012Z,35.63
2019-02-05T17:58:06.703Z,36.27
2019-02-05T18:00:37.125Z,38.37
2019-02-05T18:03:06.008Z,38.60
2019-02-05T18:05:35.008Z,38.53
2019-02-05T18:08:03.531Z,39.07
2019-02-05T18:10:31.964Z,37.90
2019-02-05T18:13:00.391Z,45.57
2019-02-05T18:15:33.235Z,38.27
2019-02-05T18:18:01.807Z,50.63
2019-02-05T18:20:30.236Z,57.47
2019-02-05T18:22:58.659Z,38.00
2019-02-05T18:25:29.348Z,39.60
2019-02-05T18:28:03.667Z,37.17
2019-02-05T18:30:35.164Z,38.43
2019-02-05T18:33:05.611Z,41.07
2019-02-05T18:35:33.854Z,45.57
2019-02-05T18:38:14.219Z,36.57
2019-02-05T18:40:42.770Z,43.97
2019-02-05T18:43:11.374Z,46.40
2019-02-05T18:45:39.864Z,47.17
2019-02-05T18:48:08.798Z,37.00
2019-02-05T18:50:37.212Z,36.73
2019-02-05T18:53:11.744Z,35.97
2019-02-05T18:55:42.444Z,35.70
2019-02-05T18:58:10.873Z,38.43
2019-02-05T19:00:41.523Z,43.43
2019-02-05T19:03:15.413Z,49.97
2019-02-05T19:05:40.403Z,55.33
2019-02-05T19:08:09.262Z,45.97
2019-02-05T19:10:37.678Z,44.50
2019-02-05T19:13:06.278Z,47.50
2019-02-05T19:15:37.845Z,36.73
2019-02-05T19:18:07.375Z,36.27
2019-02-05T19:20:36.352Z,39.30
2019-02-05T19:23:06.907Z,39.70
2019-02-05T19:25:54.688Z,42.13
2019-02-05T19:28:27.919Z,37.80
2019-02-05T19:30:57.967Z,46.63
2019-02-05T19:33:27.495Z,39.07
2019-02-05T19:35:56.032Z,56.27
2019-02-05T19:38:24.459Z,35.43
2019-02-05T19:40:57.718Z,35.10
2019-02-05T19:43:23.640Z,33.23
2019-02-05T19:45:56.603Z,34.40
2019-02-05T19:48:32.304Z,35.53
2019-02-05T19:51:01.155Z,34.87
2019-02-05T19:53:29.593Z,34.57
2019-02-05T19:55:58.305Z,45.73
2019-02-05T19:58:26.720Z,34.77
2019-02-05T20:00:55.527Z,32.07
2019-02-05T20:03:23.935Z,34.93
2019-02-05T20:05:52.360Z,31.80
2019-02-05T20:08:20.783Z,32.27
2019-02-05T20:10:49.203Z,31.80
2019-02-05T20:13:17.628Z,31.40
2019-02-05T20:15:46.043Z,32.87
2019-02-05T20:18:14.964Z,32.90
2019-02-05T20:20:43.389Z,31.87
2019-02-05T20:23:11.808Z,29.10
2019-02-05T20:25:40.239Z,28.47
2019-02-05T20:28:09.574Z,28.50
2019-02-05T20:30:37.987Z,28.63
2019-02-05T20:33:06.409Z,28.30
2019-02-05T20:35:35.119Z,28.33
2019-02-05T20:38:03.603Z,28.67
2019-02-05T20:40:32.037Z,30.43
2019-02-05T20:43:00.516Z,32.47
2019-02-05T20:45:28.935Z,30.33
2019-02-05T20:47:57.483Z,29.17
2019-02-05T20:50:25.950Z,31.53
2019-02-05T20:52:54.745Z,29.10
2019-02-05T20:55:24.596Z,31.23
2019-02-05T20:57:53.079Z,31.07
2019-02-05T21:00:32.261Z,32.07
2019-02-05T21:03:00.673Z,31.77
2019-02-05T21:05:29.227Z,30.83
2019-02-05T21:07:57.924Z,31.70
2019-02-05T21:10:32.022Z,30.60
2019-02-05T21:13:00.679Z,32.23
2019-02-05T21:15:29.161Z,32.07
2019-02-05T21:17:57.724Z,31.83
2019-02-05T21:20:34.274Z,30.93
2019-02-05T21:23:02.844Z,30.47
2019-02-05T21:25:31.259Z,29.67
2019-02-05T21:27:59.743Z,29.47
2019-02-05T21:30:28.328Z,30.20
2019-02-05T21:32:57.453Z,29.90
2019-02-05T21:35:25.936Z,29.33
2019-02-05T21:37:54.429Z,29.70
2019-02-05T21:40:23.876Z,30.77
2019-02-05T21:42:52.301Z,28.97
2019-02-05T21:45:28.993Z,30.07
2019-02-05T21:47:57.488Z,30.50
2019-02-05T21:50:25.896Z,29.80
2019-02-05T21:52:54.393Z,30.77
2019-02-05T21:55:24.047Z,30.80
2019-02-05T21:57:53.549Z,31.23
2019-02-05T22:00:27.470Z,30.33
2019-02-05T22:02:56.105Z,30.37
2019-02-05T22:05:25.434Z,33.07
2019-02-05T22:07:53.969Z,32.10
2019-02-05T22:10:22.775Z,31.73
2019-02-05T22:12:51.227Z,31.57
2019-02-05T22:15:20.647Z,33.20
2019-02-05T22:17:49.140Z,31.60
2019-02-05T22:20:20.697Z,31.73
2019-02-05T22:22:49.264Z,31.57
2019-02-05T22:25:26.052Z,30.30
2019-02-05T22:27:54.540Z,29.07
2019-02-05T22:30:28.186Z,28.73
2019-02-05T22:32:56.093Z,29.67
2019-02-05T22:35:24.630Z,29.97
2019-02-05T22:37:53.323Z,29.83
2019-02-05T22:40:23.759Z,29.63
2019-02-05T22:42:52.538Z,27.97
2019-02-05T22:45:23.461Z,29.37
2019-02-05T22:47:51.873Z,29.43
2019-02-05T22:50:23.554Z,30.03
2019-02-05T22:52:59.636Z,28.03
2019-02-05T22:55:28.140Z,28.57
2019-02-05T22:57:56.627Z,26.50
2019-02-05T23:00:38.331Z,25.87
2019-02-05T23:03:07.092Z,26.93
2019-02-05T23:05:44.127Z,26.40
2019-02-05T23:08:12.675Z,26.90
2019-02-05T23:11:05.006Z,27.07
2019-02-05T23:13:34.550Z,27.27
2019-02-05T23:16:03.103Z,26.10
2019-02-05T23:18:31.516Z,27.87
2019-02-05T23:20:59.947Z,28.47
2019-02-05T23:23:28.374Z,27.30
2019-02-05T23:25:56.931Z,28.13
2019-02-05T23:28:25.356Z,27.93
2019-02-05T23:30:54.040Z,28.43
2019-02-05T23:33:22.473Z,27.53
2019-02-05T23:35:51.569Z,25.27
2019-02-05T23:38:19.995Z,24.83
2019-02-05T23:40:48.412Z,25.53
2019-02-05T23:43:16.840Z,23.97
2019-02-05T23:45:45.627Z,25.70
2019-02-05T23:48:14.125Z,24.87
2019-02-05T23:50:42.541Z,25.10
2019-02-05T23:53:10.968Z,24.97
2019-02-05T23:55:39.440Z,25.90
2019-02-05T23:58:07.928Z,25.40
